Rechercher aéroport 
image banner adimage banner adimage banner ad
image banner ad

CA57 - Blake Sky Park

Situé à Vacaville, United States

ICAO - CA57, IATA -

Données fournies par Airmate  

Information générale

Coordonnées: N38°27'30" W122°2'44"
Élévation : 53 feet MSL.
Variation magnétique : 16° East
Voir autres Aéroports à California

Données opérationnelles

Special qualification required
Heure actuelle UTC:
Heure actuelle locale:
Météo à : KVCB - Nut Tree ( 12 km )
METAR: KVCB 262353Z AUTO 21016G25KT 10SM CLR 28/12 A2984 RMK AO2 PK WND 21027/2338 SLP101 T02830122 10294 20250 55006
Voir NOTAMs / SUP AIP / TFR affectant cet aéroport [VIEW]
Fréquences de communication: [VIEW]

Pistes:

Coordonnées de l'aéroport

Adresse: Vacaville United States

Vue satellite de CA57